Página principal
METAR-TAF:

METAR-TAF

Aeroportos :

Beirute, Líbano

latitude: 33-49N, longitude: 035-29E, altura: 29 m

Observação actual do tempo

O boletim foi feito há 40 minutos, às 08:00 UTC
Vento 8 kt de noroeste
Temperatura 28°C
Humidade 45%
Pressão 1015 hPa
Visibilidade 10 km ou mais
sem nuvens abaixo de 1500 metros e sem cumulonimbus

METAR: OLBA 240800Z 32008KT CAVOK 28/15 Q1015 NOSIG

Hora: 11:40 (08:40 UTC)

Previsão

O boletim foi feito há 4 horas e 40 minutos, às 04:00 UTC
Previsão válida de 24 às 06 UTC a 25 às 12 UTC
Vento 10 kt de nor-noroeste com rajadas de 20 kt
Visibilidade: 8000 m
Poucas nuvensa uma altura de 2400 ft
Tornando-se
de 24 às 21 UTC a 24 às 24 UTC
Vento 3 kt com direcção variável
Tornando-se
de 25 às 09 UTC a 25 às 12 UTC
Vento 13 kt de oeste
Nuvens dispersasa uma altura de 2200 ft

TAF: OLBA 240400Z 2406/2512 33010G20KT 8000 FEW024 BECMG 2421/2424 VRB03KT BECMG 2509/2512 27013KT SCT022

Observações e previsões do tempo de mais de 4000 aeroportos (mensagens METAR e TAF).

As estações disponíveis são os pontos amarelos e vermelhos sobre o mapa.

Mova o rato sobre o mapa para ver o nome da estação.

Depois clique no ponto para visualizar as observações e previsões meteorológicas.

Para alterar o mapa : clique nos botões verdes com uma cruz preta para aumentar o zoom; no botão verde com uma pitada de zoom; ou nas setas verdes para mapas adjacentes.


METAR-TAF: